createdAt,value
2022-10-08T00:02:55.802Z,14.84
2022-10-08T00:05:59.587Z,14.95
2022-10-08T00:09:02.338Z,15.00
2022-10-08T00:11:59.529Z,14.79
2022-10-08T00:14:56.454Z,14.76
2022-10-08T00:17:54.076Z,14.69
2022-10-08T00:20:50.430Z,14.27
2022-10-08T00:23:48.182Z,14.27
2022-10-08T00:26:45.913Z,14.18
2022-10-08T00:29:44.726Z,14.27
2022-10-08T00:32:41.725Z,14.30
2022-10-08T00:35:39.310Z,14.42
2022-10-08T00:38:36.812Z,13.99
2022-10-08T00:41:34.921Z,13.51
2022-10-08T00:44:53.507Z,13.58
2022-10-08T00:47:50.819Z,14.07
2022-10-08T00:50:47.828Z,13.92
2022-10-08T00:53:45.003Z,13.71
2022-10-08T00:56:42.022Z,13.55
2022-10-08T00:59:38.526Z,13.44
2022-10-08T01:02:35.943Z,13.53
2022-10-08T01:06:00.442Z,13.73
2022-10-08T01:09:06.000Z,14.11
2022-10-08T01:12:23.148Z,13.81
2022-10-08T01:15:30.268Z,13.87
2022-10-08T01:18:58.994Z,13.92
2022-10-08T01:22:35.986Z,14.39
2022-10-08T01:25:35.766Z,14.60
2022-10-08T01:28:56.530Z,14.76
2022-10-08T01:32:14.703Z,14.96
2022-10-08T01:35:14.522Z,15.06
2022-10-08T01:38:14.117Z,14.84
2022-10-08T01:41:12.468Z,14.78
2022-10-08T01:44:19.904Z,14.72
2022-10-08T01:47:19.990Z,14.66
2022-10-08T01:50:20.433Z,14.77
2022-10-08T01:53:17.847Z,14.89
2022-10-08T01:56:18.473Z,14.89
2022-10-08T01:59:45.794Z,14.72
2022-10-08T02:02:42.745Z,14.72
2022-10-08T02:05:41.877Z,14.70
2022-10-08T02:08:38.643Z,14.79
2022-10-08T02:11:36.001Z,14.53
2022-10-08T02:14:33.431Z,14.49
2022-10-08T02:17:43.725Z,14.66
2022-10-08T02:20:53.526Z,14.56
2022-10-08T02:24:00.737Z,14.69
2022-10-08T02:26:58.041Z,14.61
2022-10-08T02:30:01.582Z,14.77
2022-10-08T02:33:02.687Z,14.77
2022-10-08T02:35:59.934Z,14.81
2022-10-08T02:38:58.277Z,14.62
2022-10-08T02:41:58.169Z,14.67
2022-10-08T02:44:58.901Z,14.81
2022-10-08T02:48:00.709Z,14.72
2022-10-08T02:50:59.437Z,14.68
2022-10-08T02:53:56.622Z,14.53
2022-10-08T02:57:07.124Z,14.63
2022-10-08T03:00:07.481Z,14.74
2022-10-08T03:03:13.984Z,14.89
2022-10-08T03:06:11.094Z,14.99
2022-10-08T03:09:07.605Z,15.04
2022-10-08T03:12:05.971Z,15.07
2022-10-08T03:15:02.728Z,15.05
2022-10-08T03:18:06.404Z,14.96
2022-10-08T03:21:04.249Z,15.00
2022-10-08T03:24:01.856Z,14.89
2022-10-08T03:26:58.827Z,14.82
2022-10-08T03:29:57.469Z,14.92
2022-10-08T03:32:55.005Z,14.85
2022-10-08T03:35:52.029Z,14.81
2022-10-08T03:38:49.229Z,14.75
2022-10-08T03:41:46.758Z,14.67
2022-10-08T03:44:44.119Z,14.66
2022-10-08T03:47:40.542Z,14.80
2022-10-08T03:50:37.692Z,14.75
2022-10-08T03:53:35.540Z,14.96
2022-10-08T03:56:32.935Z,15.06
2022-10-08T03:59:31.045Z,15.09
2022-10-08T04:02:27.828Z,15.07
2022-10-08T04:05:24.709Z,15.16
2022-10-08T04:08:22.235Z,15.10
2022-10-08T04:11:18.891Z,15.14
2022-10-08T04:14:15.664Z,15.09
2022-10-08T04:17:13.218Z,14.93
2022-10-08T04:20:10.039Z,14.92
2022-10-08T04:23:07.882Z,14.89
2022-10-08T04:26:05.094Z,14.91
2022-10-08T04:29:01.963Z,14.93
2022-10-08T04:31:59.067Z,14.91
2022-10-08T04:34:55.738Z,14.85
2022-10-08T04:37:52.671Z,14.90
2022-10-08T04:41:00.824Z,14.91
2022-10-08T04:43:59.919Z,14.95
2022-10-08T04:46:57.071Z,15.02
2022-10-08T04:49:54.056Z,15.06
2022-10-08T04:52:50.899Z,15.10
2022-10-08T04:55:48.058Z,14.98
2022-10-08T04:58:44.950Z,15.00
2022-10-08T05:01:41.942Z,14.91
2022-10-08T05:04:38.902Z,14.89
2022-10-08T05:07:35.712Z,14.88
2022-10-08T05:10:33.208Z,14.90
2022-10-08T05:13:29.682Z,14.88
2022-10-08T05:16:27.324Z,14.87
2022-10-08T05:19:24.170Z,14.71
2022-10-08T05:22:21.009Z,14.69
2022-10-08T05:25:17.850Z,14.77
2022-10-08T05:28:14.694Z,14.74
2022-10-08T05:31:11.733Z,14.70
2022-10-08T05:34:09.006Z,14.68
2022-10-08T05:37:06.019Z,14.67
2022-10-08T05:40:03.122Z,14.61
2022-10-08T05:43:00.106Z,14.52
2022-10-08T05:45:56.784Z,14.53
2022-10-08T05:48:54.769Z,14.39
2022-10-08T05:51:51.929Z,14.43
2022-10-08T05:54:48.974Z,14.50
2022-10-08T05:57:46.541Z,14.44
2022-10-08T06:00:43.803Z,14.25
2022-10-08T06:03:41.515Z,14.27
2022-10-08T06:06:40.575Z,14.36
2022-10-08T06:09:38.204Z,14.33
2022-10-08T06:12:35.236Z,14.45
2022-10-08T06:15:32.266Z,14.39
2022-10-08T06:18:30.644Z,14.48
2022-10-08T06:21:29.406Z,14.41
2022-10-08T06:24:27.125Z,14.36
2022-10-08T06:27:24.118Z,14.40
2022-10-08T06:30:21.123Z,14.45
2022-10-08T06:33:18.110Z,14.43
2022-10-08T06:36:19.171Z,14.34
2022-10-08T06:39:17.894Z,14.50
2022-10-08T06:42:14.955Z,14.59
2022-10-08T06:45:13.909Z,14.69
2022-10-08T06:48:11.452Z,14.80
2022-10-08T06:51:13.809Z,14.69
2022-10-08T06:54:11.473Z,14.84
2022-10-08T06:57:09.334Z,14.85
2022-10-08T07:00:06.922Z,14.76
2022-10-08T07:03:03.943Z,14.56
2022-10-08T07:06:05.322Z,14.49
2022-10-08T07:09:02.595Z,14.57
2022-10-08T07:11:59.884Z,14.63
2022-10-08T07:14:56.673Z,14.36
2022-10-08T07:17:54.190Z,14.43
2022-10-08T07:20:56.252Z,14.48
2022-10-08T07:23:53.325Z,14.52
2022-10-08T07:26:50.088Z,14.65
2022-10-08T07:29:47.068Z,14.56
2022-10-08T07:32:43.811Z,14.64
2022-10-08T07:35:41.387Z,14.68
2022-10-08T07:38:39.326Z,14.72
2022-10-08T07:41:36.316Z,14.80
2022-10-08T07:44:33.109Z,14.79
2022-10-08T07:47:30.110Z,14.77
2022-10-08T07:50:27.204Z,14.66
2022-10-08T07:53:24.094Z,14.62
2022-10-08T07:56:21.352Z,14.63
2022-10-08T07:59:18.135Z,14.79
2022-10-08T08:02:15.186Z,14.94
2022-10-08T08:05:12.307Z,14.95
2022-10-08T08:08:09.595Z,14.88
2022-10-08T08:11:07.893Z,14.87
2022-10-08T08:14:05.096Z,14.98
2022-10-08T08:17:02.389Z,15.01
2022-10-08T08:19:59.509Z,14.91
2022-10-08T08:22:56.908Z,14.86
2022-10-08T08:25:53.790Z,15.00
2022-10-08T08:28:52.438Z,15.13
2022-10-08T08:31:49.745Z,15.18
2022-10-08T08:34:47.323Z,15.39
2022-10-08T08:37:44.295Z,15.19
2022-10-08T08:40:41.401Z,15.28
2022-10-08T08:43:38.002Z,15.44
2022-10-08T08:46:36.600Z,15.40
2022-10-08T08:49:42.032Z,15.45
2022-10-08T08:52:40.747Z,15.50
2022-10-08T08:55:43.867Z,15.51
2022-10-08T08:58:43.103Z,15.40
2022-10-08T09:01:43.486Z,15.49
2022-10-08T09:04:45.468Z,14.64
2022-10-08T09:07:47.104Z,14.36
2022-10-08T09:10:52.834Z,14.02
2022-10-08T09:13:51.287Z,14.14
2022-10-08T09:16:48.214Z,14.08
2022-10-08T09:19:45.591Z,14.20
2022-10-08T09:22:43.281Z,14.26
2022-10-08T09:25:39.838Z,14.51
2022-10-08T09:28:44.707Z,14.58
2022-10-08T09:31:44.873Z,14.75
2022-10-08T09:34:43.300Z,14.86
2022-10-08T09:37:40.152Z,14.89
2022-10-08T09:40:36.797Z,14.99
2022-10-08T09:43:35.050Z,15.09
2022-10-08T09:46:33.086Z,15.19
2022-10-08T09:49:36.095Z,15.44
2022-10-08T09:52:34.118Z,15.68
2022-10-08T09:55:32.098Z,15.91
2022-10-08T09:58:31.194Z,15.63
2022-10-08T10:01:28.689Z,15.52
2022-10-08T10:04:36.459Z,15.72
2022-10-08T10:07:41.151Z,15.95
2022-10-08T10:10:39.613Z,15.98
2022-10-08T10:13:38.565Z,15.97
2022-10-08T10:16:37.911Z,16.05
2022-10-08T10:19:59.635Z,15.96
2022-10-08T10:23:13.783Z,16.08
2022-10-08T10:26:13.416Z,16.45
2022-10-08T10:29:20.776Z,16.33
2022-10-08T10:32:21.792Z,16.23
2022-10-08T10:35:29.174Z,16.29
2022-10-08T10:38:28.485Z,16.18
2022-10-08T10:41:52.873Z,16.35
2022-10-08T10:44:54.741Z,16.50
2022-10-08T10:47:53.382Z,16.34
2022-10-08T10:51:07.951Z,16.65
2022-10-08T10:54:26.859Z,16.31
2022-10-08T10:58:01.924Z,16.09
2022-10-08T11:01:23.975Z,15.79
2022-10-08T11:04:32.635Z,15.72
2022-10-08T11:07:50.344Z,15.73
2022-10-08T11:11:05.597Z,15.73
2022-10-08T11:14:21.524Z,15.81
2022-10-08T11:17:52.787Z,16.45
2022-10-08T11:21:31.966Z,16.89
2022-10-08T11:25:13.797Z,16.96
2022-10-08T11:28:39.473Z,17.17
2022-10-08T11:31:42.599Z,17.02
2022-10-08T11:34:40.269Z,16.91
2022-10-08T11:37:51.423Z,16.83
2022-10-08T11:40:49.408Z,16.73
2022-10-08T11:43:53.283Z,17.00
2022-10-08T11:46:49.900Z,16.91
2022-10-08T11:49:51.271Z,17.02
2022-10-08T11:52:48.103Z,17.08
2022-10-08T11:55:53.200Z,17.17
2022-10-08T11:58:53.425Z,17.11
2022-10-08T12:02:28.793Z,16.80
2022-10-08T12:05:25.983Z,16.52
2022-10-08T12:08:50.554Z,16.24
2022-10-08T12:11:48.329Z,16.07
2022-10-08T12:14:45.837Z,15.86
2022-10-08T12:18:13.582Z,15.76
2022-10-08T12:21:16.170Z,15.66
2022-10-08T12:24:38.234Z,15.63
2022-10-08T12:27:38.005Z,15.88
2022-10-08T12:30:48.479Z,16.02
2022-10-08T12:33:55.397Z,16.29
2022-10-08T12:36:55.254Z,16.09
2022-10-08T12:39:53.173Z,15.99
2022-10-08T12:42:50.342Z,16.10
2022-10-08T12:45:57.782Z,16.37
2022-10-08T12:49:09.317Z,16.29
2022-10-08T12:52:07.598Z,16.27
2022-10-08T12:55:05.051Z,16.45
2022-10-08T12:58:02.339Z,16.24
2022-10-08T13:01:00.818Z,16.23
2022-10-08T13:04:34.018Z,16.37
2022-10-08T13:07:33.376Z,16.51
2022-10-08T13:10:30.349Z,16.53
2022-10-08T13:13:33.580Z,16.71
2022-10-08T13:16:30.622Z,16.83
2022-10-08T13:19:35.287Z,16.88
2022-10-08T13:22:32.471Z,16.98
2022-10-08T13:25:37.938Z,17.00
2022-10-08T13:28:59.199Z,16.88
2022-10-08T13:32:11.479Z,16.79
2022-10-08T13:35:20.290Z,16.94
2022-10-08T13:38:21.761Z,17.09
2022-10-08T13:41:25.262Z,16.93
2022-10-08T13:44:22.246Z,16.94
2022-10-08T13:47:20.755Z,17.03
2022-10-08T13:50:18.688Z,16.98
2022-10-08T13:53:17.407Z,17.00
2022-10-08T13:56:14.171Z,17.00
2022-10-08T13:59:12.246Z,17.04
2022-10-08T14:02:13.713Z,17.05
2022-10-08T14:05:11.557Z,17.08
2022-10-08T14:08:20.273Z,17.09
2022-10-08T14:11:18.159Z,17.26
2022-10-08T14:14:15.578Z,17.59
2022-10-08T14:17:12.373Z,17.66
2022-10-08T14:20:09.639Z,17.77
2022-10-08T14:23:06.452Z,17.93
2022-10-08T14:26:03.479Z,17.95
2022-10-08T14:29:00.449Z,17.61
2022-10-08T14:31:57.457Z,17.64
2022-10-08T14:34:54.694Z,17.64
2022-10-08T14:37:51.611Z,17.58
2022-10-08T14:40:48.287Z,17.47
2022-10-08T14:43:45.364Z,17.57
2022-10-08T14:46:47.497Z,17.69
2022-10-08T14:49:44.679Z,17.55
2022-10-08T14:52:44.691Z,17.42
2022-10-08T14:56:00.812Z,17.56
2022-10-08T14:58:59.513Z,17.85
2022-10-08T15:01:56.538Z,17.86
2022-10-08T15:04:54.953Z,17.79
2022-10-08T15:07:52.340Z,17.95
2022-10-08T15:10:49.438Z,17.99
2022-10-08T15:13:46.451Z,17.92
2022-10-08T15:16:43.789Z,17.80
2022-10-08T15:19:41.594Z,17.78
2022-10-08T15:22:38.325Z,17.74
2022-10-08T15:25:35.443Z,17.54
2022-10-08T15:28:32.821Z,17.38
2022-10-08T15:31:30.269Z,17.70
2022-10-08T15:34:27.163Z,17.63
2022-10-08T15:37:24.738Z,17.64
2022-10-08T15:40:22.731Z,17.51
2022-10-08T15:43:19.330Z,17.62
2022-10-08T15:46:17.606Z,17.64
2022-10-08T15:49:14.119Z,17.52
2022-10-08T15:52:21.120Z,17.55
2022-10-08T15:55:18.361Z,17.38
2022-10-08T15:58:32.603Z,17.19
2022-10-08T16:01:35.436Z,17.04
2022-10-08T16:04:32.573Z,17.12
2022-10-08T16:07:29.594Z,17.04
2022-10-08T16:10:26.465Z,17.02
2022-10-08T16:13:23.595Z,17.05
2022-10-08T16:16:21.207Z,17.00
2022-10-08T16:19:22.657Z,16.76
2022-10-08T16:22:19.689Z,16.91
2022-10-08T16:25:16.424Z,16.98
2022-10-08T16:28:13.528Z,16.91
2022-10-08T16:31:11.494Z,16.83
2022-10-08T16:34:19.514Z,16.98
2022-10-08T16:37:18.227Z,16.83
2022-10-08T16:40:15.845Z,16.87
2022-10-08T16:43:13.521Z,16.81
2022-10-08T16:46:18.086Z,16.67
2022-10-08T16:49:22.715Z,16.69
2022-10-08T16:52:20.706Z,16.72
2022-10-08T16:55:18.379Z,16.80
2022-10-08T16:58:15.176Z,16.89
2022-10-08T17:01:12.873Z,16.88
2022-10-08T17:04:10.650Z,16.94
2022-10-08T17:07:07.798Z,16.75
2022-10-08T17:10:05.354Z,16.71
2022-10-08T17:13:02.419Z,16.52
2022-10-08T17:16:03.738Z,16.26
2022-10-08T17:19:01.003Z,16.22
2022-10-08T17:21:58.554Z,16.09
2022-10-08T17:24:56.369Z,15.94
2022-10-08T17:27:53.301Z,15.74
2022-10-08T17:30:50.768Z,15.75
2022-10-08T17:33:47.793Z,15.66
2022-10-08T17:36:44.846Z,15.40
2022-10-08T17:39:41.868Z,15.40
2022-10-08T17:42:39.819Z,15.34
2022-10-08T17:45:36.891Z,15.44
2022-10-08T17:48:34.373Z,15.21
2022-10-08T17:51:31.595Z,15.11
2022-10-08T17:54:28.796Z,15.16
2022-10-08T17:57:25.533Z,15.49
2022-10-08T18:00:22.762Z,15.45
2022-10-08T18:03:20.615Z,15.27
2022-10-08T18:06:18.162Z,15.33
2022-10-08T18:09:24.935Z,15.51
2022-10-08T18:12:22.494Z,15.37
2022-10-08T18:15:19.769Z,15.26
2022-10-08T18:18:16.945Z,15.01
2022-10-08T18:21:16.372Z,14.96
2022-10-08T18:24:13.839Z,14.91
2022-10-08T18:27:10.631Z,15.19
2022-10-08T18:30:08.420Z,15.46
2022-10-08T18:33:06.443Z,15.79
2022-10-08T18:36:11.717Z,15.92
2022-10-08T18:39:13.836Z,15.84
2022-10-08T18:42:10.878Z,15.74
2022-10-08T18:45:08.469Z,15.71
2022-10-08T18:48:05.871Z,15.74
2022-10-08T18:51:08.281Z,15.79
2022-10-08T18:54:06.829Z,15.76
2022-10-08T18:57:03.609Z,15.80
2022-10-08T19:00:00.748Z,15.84
2022-10-08T19:02:58.454Z,15.73
2022-10-08T19:05:55.859Z,15.78
2022-10-08T19:08:52.951Z,15.61
2022-10-08T19:11:52.871Z,15.64
2022-10-08T19:14:51.057Z,15.67
2022-10-08T19:17:48.952Z,15.57
2022-10-08T19:20:46.966Z,15.54
2022-10-08T19:23:44.672Z,15.55
2022-10-08T19:26:41.741Z,15.52
2022-10-08T19:29:39.418Z,15.53
2022-10-08T19:32:36.558Z,15.60
2022-10-08T19:35:33.511Z,15.48
2022-10-08T19:38:32.404Z,15.50
2022-10-08T19:41:30.090Z,15.31
2022-10-08T19:44:27.988Z,15.29
2022-10-08T19:47:25.826Z,15.15
2022-10-08T19:50:22.874Z,15.14
2022-10-08T19:53:19.751Z,15.04
2022-10-08T19:56:16.953Z,15.10
2022-10-08T19:59:13.817Z,15.18
2022-10-08T20:02:10.961Z,15.25
2022-10-08T20:05:08.921Z,15.28
2022-10-08T20:08:05.973Z,15.27
2022-10-08T20:11:07.431Z,15.20
2022-10-08T20:14:08.027Z,14.79
2022-10-08T20:17:06.088Z,14.33
2022-10-08T20:20:20.923Z,14.40
2022-10-08T20:23:23.128Z,14.52
2022-10-08T20:26:27.794Z,14.31
2022-10-08T20:29:29.980Z,14.39
2022-10-08T20:32:27.794Z,14.17
2022-10-08T20:35:24.687Z,14.41
2022-10-08T20:38:22.279Z,14.43
2022-10-08T20:41:20.474Z,14.35
2022-10-08T20:44:18.078Z,14.54
2022-10-08T20:47:16.048Z,14.50
2022-10-08T20:50:14.114Z,14.51
2022-10-08T20:53:11.749Z,14.68
2022-10-08T20:56:09.986Z,14.49
2022-10-08T20:59:09.074Z,14.55
2022-10-08T21:02:07.019Z,14.54
2022-10-08T21:05:04.853Z,14.75
2022-10-08T21:08:01.625Z,14.88
2022-10-08T21:11:02.390Z,14.87
2022-10-08T21:14:01.720Z,15.08
2022-10-08T21:16:58.917Z,14.90
2022-10-08T21:19:55.689Z,14.82
2022-10-08T21:22:53.153Z,14.61
2022-10-08T21:25:51.369Z,14.59
2022-10-08T21:28:50.130Z,14.39
2022-10-08T21:31:48.016Z,14.45
2022-10-08T21:34:44.513Z,14.46
2022-10-08T21:37:42.209Z,14.76
2022-10-08T21:40:39.853Z,14.87
2022-10-08T21:43:37.223Z,14.81
2022-10-08T21:46:37.270Z,14.62
2022-10-08T21:49:34.935Z,14.35
2022-10-08T21:52:33.299Z,14.34
2022-10-08T21:55:30.833Z,14.46
2022-10-08T21:58:28.455Z,14.34
2022-10-08T22:01:25.701Z,14.30
2022-10-08T22:04:24.183Z,14.34
2022-10-08T22:07:21.823Z,14.32
2022-10-08T22:10:19.263Z,14.03
2022-10-08T22:13:17.140Z,14.01
2022-10-08T22:16:15.623Z,14.06
2022-10-08T22:19:13.145Z,14.25
2022-10-08T22:22:11.049Z,14.41
2022-10-08T22:25:09.182Z,14.13
2022-10-08T22:28:06.849Z,14.05
2022-10-08T22:31:04.635Z,13.85
2022-10-08T22:34:01.899Z,13.65
2022-10-08T22:36:58.862Z,13.42
2022-10-08T22:39:55.782Z,13.24
2022-10-08T22:42:52.865Z,13.08
2022-10-08T22:45:50.012Z,12.98
2022-10-08T22:48:47.116Z,12.94
2022-10-08T22:51:44.793Z,12.81
2022-10-08T22:54:41.858Z,12.64
2022-10-08T22:57:39.873Z,12.64
2022-10-08T23:00:36.697Z,12.70
2022-10-08T23:03:34.139Z,12.61
2022-10-08T23:06:35.199Z,12.57
2022-10-08T23:09:32.878Z,12.36
2022-10-08T23:12:29.943Z,12.43
2022-10-08T23:15:27.053Z,12.31
2022-10-08T23:18:24.980Z,12.19
2022-10-08T23:21:23.193Z,11.99
2022-10-08T23:24:21.002Z,11.88
2022-10-08T23:27:17.665Z,11.98
2022-10-08T23:30:41.222Z,11.90
2022-10-08T23:33:32.737Z,11.97
2022-10-08T23:36:31.940Z,12.06
2022-10-08T23:39:28.943Z,11.91
2022-10-08T23:42:25.754Z,12.03
2022-10-08T23:45:22.878Z,12.48
2022-10-08T23:48:19.869Z,12.57
2022-10-08T23:51:17.482Z,12.56
2022-10-08T23:54:14.721Z,12.36
2022-10-08T23:57:11.611Z,12.27
